sensor_id;sensor_type;location;lat;lon;timestamp;temperature;humidity
18948;DHT22;9607;51.600;7.558;2024-03-08T00:00:30;1.70;99.90
18948;DHT22;9607;51.600;7.558;2024-03-08T00:02:57;1.70;99.90
18948;DHT22;9607;51.600;7.558;2024-03-08T00:05:24;1.70;99.90
18948;DHT22;9607;51.600;7.558;2024-03-08T00:07:51;1.70;99.90
18948;DHT22;9607;51.600;7.558;2024-03-08T00:10:20;1.60;99.90
18948;DHT22;9607;51.600;7.558;2024-03-08T00:12:46;1.60;99.90
18948;DHT22;9607;51.600;7.558;2024-03-08T00:15:14;1.60;99.90
18948;DHT22;9607;51.600;7.558;2024-03-08T00:17:41;1.60;99.90
18948;DHT22;9607;51.600;7.558;2024-03-08T00:20:08;1.60;99.90
18948;DHT22;9607;51.600;7.558;2024-03-08T00:22:36;1.50;99.90
18948;DHT22;9607;51.600;7.558;2024-03-08T00:25:03;1.60;99.90
18948;DHT22;9607;51.600;7.558;2024-03-08T00:27:31;1.60;99.90
18948;DHT22;9607;51.600;7.558;2024-03-08T00:29:59;1.50;99.90
18948;DHT22;9607;51.600;7.558;2024-03-08T00:32:26;1.50;99.90
18948;DHT22;9607;51.600;7.558;2024-03-08T00:34:53;1.50;99.90
18948;DHT22;9607;51.600;7.558;2024-03-08T00:37:20;1.50;99.90
18948;DHT22;9607;51.600;7.558;2024-03-08T00:39:47;1.40;99.90
18948;DHT22;9607;51.600;7.558;2024-03-08T00:42:15;1.40;99.90
18948;DHT22;9607;51.600;7.558;2024-03-08T00:44:43;1.40;99.90
18948;DHT22;9607;51.600;7.558;2024-03-08T00:47:10;1.40;99.90
18948;DHT22;9607;51.600;7.558;2024-03-08T00:49:37;1.40;99.90
18948;DHT22;9607;51.600;7.558;2024-03-08T00:52:04;1.40;99.90
18948;DHT22;9607;51.600;7.558;2024-03-08T00:54:31;1.30;99.90
18948;DHT22;9607;51.600;7.558;2024-03-08T00:56:58;1.30;99.90
18948;DHT22;9607;51.600;7.558;2024-03-08T00:59:28;1.30;99.90
18948;DHT22;9607;51.600;7.558;2024-03-08T01:01:56;1.30;99.90
18948;DHT22;9607;51.600;7.558;2024-03-08T01:04:23;1.40;99.90
18948;DHT22;9607;51.600;7.558;2024-03-08T01:06:51;1.30;99.90
18948;DHT22;9607;51.600;7.558;2024-03-08T01:09:18;1.30;99.90
18948;DHT22;9607;51.600;7.558;2024-03-08T01:11:45;1.30;99.90
18948;DHT22;9607;51.600;7.558;2024-03-08T01:14:12;1.30;99.90
18948;DHT22;9607;51.600;7.558;2024-03-08T01:16:39;1.40;99.90
18948;DHT22;9607;51.600;7.558;2024-03-08T01:19:07;1.30;99.90
18948;DHT22;9607;51.600;7.558;2024-03-08T01:21:34;1.30;99.90
18948;DHT22;9607;51.600;7.558;2024-03-08T01:24:02;1.30;99.90
18948;DHT22;9607;51.600;7.558;2024-03-08T01:26:28;1.30;99.90
18948;DHT22;9607;51.600;7.558;2024-03-08T01:28:56;1.30;99.90
18948;DHT22;9607;51.600;7.558;2024-03-08T01:31:22;1.30;99.90
18948;DHT22;9607;51.600;7.558;2024-03-08T01:33:49;1.30;99.90
18948;DHT22;9607;51.600;7.558;2024-03-08T01:36:17;1.30;99.90
18948;DHT22;9607;51.600;7.558;2024-03-08T01:38:44;1.30;99.90
18948;DHT22;9607;51.600;7.558;2024-03-08T01:41:11;1.30;99.90
18948;DHT22;9607;51.600;7.558;2024-03-08T01:43:39;1.30;99.90
18948;DHT22;9607;51.600;7.558;2024-03-08T01:46:07;1.30;99.90
18948;DHT22;9607;51.600;7.558;2024-03-08T01:48:36;1.30;99.90
18948;DHT22;9607;51.600;7.558;2024-03-08T01:51:03;1.30;99.90
18948;DHT22;9607;51.600;7.558;2024-03-08T01:53:33;1.30;99.90
18948;DHT22;9607;51.600;7.558;2024-03-08T01:56:01;1.30;99.90
18948;DHT22;9607;51.600;7.558;2024-03-08T01:58:29;1.20;99.90
18948;DHT22;9607;51.600;7.558;2024-03-08T02:00:58;1.20;99.90
18948;DHT22;9607;51.600;7.558;2024-03-08T02:03:26;1.20;99.90
18948;DHT22;9607;51.600;7.558;2024-03-08T02:05:53;1.20;99.90
18948;DHT22;9607;51.600;7.558;2024-03-08T02:08:20;1.20;99.90
18948;DHT22;9607;51.600;7.558;2024-03-08T02:10:49;1.10;99.90
18948;DHT22;9607;51.600;7.558;2024-03-08T02:13:16;1.10;99.90
18948;DHT22;9607;51.600;7.558;2024-03-08T02:15:53;1.10;99.90
18948;DHT22;9607;51.600;7.558;2024-03-08T02:18:21;1.10;99.90
18948;DHT22;9607;51.600;7.558;2024-03-08T02:20:49;1.10;99.90
18948;DHT22;9607;51.600;7.558;2024-03-08T02:23:18;1.10;99.90
18948;DHT22;9607;51.600;7.558;2024-03-08T02:25:45;1.00;99.90
18948;DHT22;9607;51.600;7.558;2024-03-08T02:28:12;1.00;99.90
18948;DHT22;9607;51.600;7.558;2024-03-08T02:30:39;1.00;99.90
18948;DHT22;9607;51.600;7.558;2024-03-08T02:33:06;1.00;99.90
18948;DHT22;9607;51.600;7.558;2024-03-08T02:35:35;1.00;99.90
18948;DHT22;9607;51.600;7.558;2024-03-08T02:38:03;1.00;99.90
18948;DHT22;9607;51.600;7.558;2024-03-08T02:40:30;1.00;99.90
18948;DHT22;9607;51.600;7.558;2024-03-08T02:42:57;1.00;99.90
18948;DHT22;9607;51.600;7.558;2024-03-08T02:45:24;1.00;99.90
18948;DHT22;9607;51.600;7.558;2024-03-08T02:47:51;1.00;99.90
18948;DHT22;9607;51.600;7.558;2024-03-08T02:50:18;1.00;99.90
18948;DHT22;9607;51.600;7.558;2024-03-08T02:52:45;1.00;99.90
18948;DHT22;9607;51.600;7.558;2024-03-08T02:55:14;0.90;99.90
18948;DHT22;9607;51.600;7.558;2024-03-08T02:57:41;1.00;99.90
18948;DHT22;9607;51.600;7.558;2024-03-08T03:00:10;1.00;99.90
18948;DHT22;9607;51.600;7.558;2024-03-08T03:02:37;1.00;99.90
18948;DHT22;9607;51.600;7.558;2024-03-08T03:05:04;1.00;99.90
18948;DHT22;9607;51.600;7.558;2024-03-08T03:07:31;0.90;99.90
18948;DHT22;9607;51.600;7.558;2024-03-08T03:09:58;0.90;99.90
18948;DHT22;9607;51.600;7.558;2024-03-08T03:12:27;0.90;99.90
18948;DHT22;9607;51.600;7.558;2024-03-08T03:14:54;0.90;99.90
18948;DHT22;9607;51.600;7.558;2024-03-08T03:17:22;0.90;99.90
18948;DHT22;9607;51.600;7.558;2024-03-08T03:19:50;0.90;99.90
18948;DHT22;9607;51.600;7.558;2024-03-08T03:22:17;0.80;99.90
18948;DHT22;9607;51.600;7.558;2024-03-08T03:24:44;0.80;99.90
18948;DHT22;9607;51.600;7.558;2024-03-08T03:27:11;0.80;99.90
18948;DHT22;9607;51.600;7.558;2024-03-08T03:29:40;0.80;99.90
18948;DHT22;9607;51.600;7.558;2024-03-08T03:32:08;0.80;99.90
18948;DHT22;9607;51.600;7.558;2024-03-08T03:34:35;0.80;99.90
18948;DHT22;9607;51.600;7.558;2024-03-08T03:37:02;0.70;99.90
18948;DHT22;9607;51.600;7.558;2024-03-08T03:39:29;0.70;99.90
18948;DHT22;9607;51.600;7.558;2024-03-08T03:41:57;0.70;99.90
18948;DHT22;9607;51.600;7.558;2024-03-08T03:44:24;0.60;99.90
18948;DHT22;9607;51.600;7.558;2024-03-08T03:46:52;0.60;99.90
18948;DHT22;9607;51.600;7.558;2024-03-08T03:49:19;0.60;99.90
18948;DHT22;9607;51.600;7.558;2024-03-08T03:51:46;0.60;99.90
18948;DHT22;9607;51.600;7.558;2024-03-08T03:54:13;0.60;99.90
18948;DHT22;9607;51.600;7.558;2024-03-08T03:56:40;0.60;99.90
18948;DHT22;9607;51.600;7.558;2024-03-08T03:59:07;0.60;99.90
18948;DHT22;9607;51.600;7.558;2024-03-08T04:01:34;0.60;99.90
18948;DHT22;9607;51.600;7.558;2024-03-08T04:04:02;0.60;99.90
18948;DHT22;9607;51.600;7.558;2024-03-08T04:06:29;0.60;99.90
18948;DHT22;9607;51.600;7.558;2024-03-08T04:08:56;0.60;99.90
18948;DHT22;9607;51.600;7.558;2024-03-08T04:11:22;0.60;99.90
18948;DHT22;9607;51.600;7.558;2024-03-08T04:13:49;0.60;99.90
18948;DHT22;9607;51.600;7.558;2024-03-08T04:16:16;0.60;99.90
18948;DHT22;9607;51.600;7.558;2024-03-08T04:18:44;0.60;99.90
18948;DHT22;9607;51.600;7.558;2024-03-08T04:21:12;0.60;99.90
18948;DHT22;9607;51.600;7.558;2024-03-08T04:23:39;0.60;99.90
18948;DHT22;9607;51.600;7.558;2024-03-08T04:26:06;0.50;99.90
18948;DHT22;9607;51.600;7.558;2024-03-08T04:28:34;0.50;99.90
18948;DHT22;9607;51.600;7.558;2024-03-08T04:31:03;0.50;99.90
18948;DHT22;9607;51.600;7.558;2024-03-08T04:33:29;0.50;99.90
18948;DHT22;9607;51.600;7.558;2024-03-08T04:35:56;0.50;99.90
18948;DHT22;9607;51.600;7.558;2024-03-08T04:38:24;0.60;99.90
18948;DHT22;9607;51.600;7.558;2024-03-08T04:40:52;0.50;99.90
18948;DHT22;9607;51.600;7.558;2024-03-08T04:43:19;0.50;99.90
18948;DHT22;9607;51.600;7.558;2024-03-08T04:45:46;0.50;99.90
18948;DHT22;9607;51.600;7.558;2024-03-08T04:48:14;0.50;99.90
18948;DHT22;9607;51.600;7.558;2024-03-08T04:50:41;0.50;99.90
18948;DHT22;9607;51.600;7.558;2024-03-08T04:53:08;0.50;99.90
18948;DHT22;9607;51.600;7.558;2024-03-08T04:55:36;0.50;99.90
18948;DHT22;9607;51.600;7.558;2024-03-08T04:58:03;0.40;99.90
18948;DHT22;9607;51.600;7.558;2024-03-08T05:00:31;0.40;99.90
18948;DHT22;9607;51.600;7.558;2024-03-08T05:02:58;0.40;99.90
18948;DHT22;9607;51.600;7.558;2024-03-08T05:05:25;0.30;99.90
18948;DHT22;9607;51.600;7.558;2024-03-08T05:07:54;0.30;99.90
18948;DHT22;9607;51.600;7.558;2024-03-08T05:10:21;0.20;99.90
18948;DHT22;9607;51.600;7.558;2024-03-08T05:12:49;0.20;99.90
18948;DHT22;9607;51.600;7.558;2024-03-08T05:15:16;0.20;99.90
18948;DHT22;9607;51.600;7.558;2024-03-08T05:17:43;0.20;99.90
18948;DHT22;9607;51.600;7.558;2024-03-08T05:20:10;0.20;99.90
18948;DHT22;9607;51.600;7.558;2024-03-08T05:22:39;0.20;99.90
18948;DHT22;9607;51.600;7.558;2024-03-08T05:25:07;0.20;99.90
18948;DHT22;9607;51.600;7.558;2024-03-08T05:27:34;0.20;99.90
18948;DHT22;9607;51.600;7.558;2024-03-08T05:30:04;0.20;99.90
18948;DHT22;9607;51.600;7.558;2024-03-08T05:32:31;0.20;99.90
18948;DHT22;9607;51.600;7.558;2024-03-08T05:34:58;0.20;99.90
18948;DHT22;9607;51.600;7.558;2024-03-08T05:37:24;0.20;99.90
18948;DHT22;9607;51.600;7.558;2024-03-08T05:39:51;0.10;99.90
18948;DHT22;9607;51.600;7.558;2024-03-08T05:42:19;0.10;99.90
18948;DHT22;9607;51.600;7.558;2024-03-08T05:44:46;0.00;99.90
18948;DHT22;9607;51.600;7.558;2024-03-08T05:47:14;0.00;99.90
18948;DHT22;9607;51.600;7.558;2024-03-08T05:49:42;-0.10;99.90
18948;DHT22;9607;51.600;7.558;2024-03-08T05:52:09;-0.10;99.90
18948;DHT22;9607;51.600;7.558;2024-03-08T05:54:36;-0.10;99.90
18948;DHT22;9607;51.600;7.558;2024-03-08T05:57:03;-0.10;99.90
18948;DHT22;9607;51.600;7.558;2024-03-08T05:59:31;-0.10;99.90
18948;DHT22;9607;51.600;7.558;2024-03-08T06:01:58;-0.10;99.90
18948;DHT22;9607;51.600;7.558;2024-03-08T06:04:26;-0.10;99.90
18948;DHT22;9607;51.600;7.558;2024-03-08T06:06:54;-0.10;99.90
18948;DHT22;9607;51.600;7.558;2024-03-08T06:09:23;-0.10;99.90
18948;DHT22;9607;51.600;7.558;2024-03-08T06:11:51;-0.10;99.90
18948;DHT22;9607;51.600;7.558;2024-03-08T06:14:18;-0.10;99.90
18948;DHT22;9607;51.600;7.558;2024-03-08T06:16:45;-0.10;99.90
18948;DHT22;9607;51.600;7.558;2024-03-08T06:19:12;-0.10;99.90
18948;DHT22;9607;51.600;7.558;2024-03-08T06:21:41;-0.10;99.90
18948;DHT22;9607;51.600;7.558;2024-03-08T06:24:07;0.00;99.90
18948;DHT22;9607;51.600;7.558;2024-03-08T06:26:34;0.00;99.90
18948;DHT22;9607;51.600;7.558;2024-03-08T06:29:03;0.00;99.90
18948;DHT22;9607;51.600;7.558;2024-03-08T06:31:32;0.10;99.90
18948;DHT22;9607;51.600;7.558;2024-03-08T06:33:59;0.10;99.90
18948;DHT22;9607;51.600;7.558;2024-03-08T06:36:25;0.20;99.90
18948;DHT22;9607;51.600;7.558;2024-03-08T06:38:55;0.20;99.90
18948;DHT22;9607;51.600;7.558;2024-03-08T06:41:23;0.30;99.90
18948;DHT22;9607;51.600;7.558;2024-03-08T06:43:50;0.30;99.90
18948;DHT22;9607;51.600;7.558;2024-03-08T06:46:22;0.40;99.90
18948;DHT22;9607;51.600;7.558;2024-03-08T06:48:49;0.50;99.90
18948;DHT22;9607;51.600;7.558;2024-03-08T06:51:16;0.60;99.90
18948;DHT22;9607;51.600;7.558;2024-03-08T06:53:43;0.60;99.90
18948;DHT22;9607;51.600;7.558;2024-03-08T06:56:11;0.70;99.90
18948;DHT22;9607;51.600;7.558;2024-03-08T06:58:38;0.80;99.90
18948;DHT22;9607;51.600;7.558;2024-03-08T07:01:05;0.80;99.90
18948;DHT22;9607;51.600;7.558;2024-03-08T07:03:33;0.90;99.90
18948;DHT22;9607;51.600;7.558;2024-03-08T07:05:59;1.00;99.90
18948;DHT22;9607;51.600;7.558;2024-03-08T07:08:28;1.10;99.90
18948;DHT22;9607;51.600;7.558;2024-03-08T07:10:55;1.20;99.90
18948;DHT22;9607;51.600;7.558;2024-03-08T07:13:25;1.30;99.90
18948;DHT22;9607;51.600;7.558;2024-03-08T07:15:52;1.30;99.90
18948;DHT22;9607;51.600;7.558;2024-03-08T07:18:20;1.40;99.90
18948;DHT22;9607;51.600;7.558;2024-03-08T07:20:47;1.50;99.90
18948;DHT22;9607;51.600;7.558;2024-03-08T07:23:14;1.60;99.90
18948;DHT22;9607;51.600;7.558;2024-03-08T07:26:02;1.70;99.90
18948;DHT22;9607;51.600;7.558;2024-03-08T07:28:30;1.80;99.90
18948;DHT22;9607;51.600;7.558;2024-03-08T07:30:57;1.90;99.90
18948;DHT22;9607;51.600;7.558;2024-03-08T07:33:38;2.00;99.90
18948;DHT22;9607;51.600;7.558;2024-03-08T07:36:05;2.00;99.90
18948;DHT22;9607;51.600;7.558;2024-03-08T07:38:32;2.10;99.90
18948;DHT22;9607;51.600;7.558;2024-03-08T07:41:00;2.20;99.90
18948;DHT22;9607;51.600;7.558;2024-03-08T07:43:27;2.30;99.90
18948;DHT22;9607;51.600;7.558;2024-03-08T07:45:55;2.30;99.90
18948;DHT22;9607;51.600;7.558;2024-03-08T07:48:21;2.40;99.90
18948;DHT22;9607;51.600;7.558;2024-03-08T07:50:48;2.50;99.90
18948;DHT22;9607;51.600;7.558;2024-03-08T07:53:16;2.60;99.90
18948;DHT22;9607;51.600;7.558;2024-03-08T07:55:43;2.70;99.90
18948;DHT22;9607;51.600;7.558;2024-03-08T07:58:10;2.80;99.90
18948;DHT22;9607;51.600;7.558;2024-03-08T08:00:38;2.80;99.90
18948;DHT22;9607;51.600;7.558;2024-03-08T08:03:08;2.90;99.90
18948;DHT22;9607;51.600;7.558;2024-03-08T08:05:35;3.00;99.90
18948;DHT22;9607;51.600;7.558;2024-03-08T08:08:04;3.00;99.90
18948;DHT22;9607;51.600;7.558;2024-03-08T08:10:32;3.10;99.90
18948;DHT22;9607;51.600;7.558;2024-03-08T08:12:59;3.20;99.90
18948;DHT22;9607;51.600;7.558;2024-03-08T08:15:25;3.30;99.90
18948;DHT22;9607;51.600;7.558;2024-03-08T08:17:54;3.40;99.90
18948;DHT22;9607;51.600;7.558;2024-03-08T08:20:22;3.40;99.90
18948;DHT22;9607;51.600;7.558;2024-03-08T08:22:49;3.50;99.90
18948;DHT22;9607;51.600;7.558;2024-03-08T08:25:16;3.60;99.90
18948;DHT22;9607;51.600;7.558;2024-03-08T08:27:45;3.70;99.90
18948;DHT22;9607;51.600;7.558;2024-03-08T08:30:13;3.70;99.90
18948;DHT22;9607;51.600;7.558;2024-03-08T08:32:39;3.80;99.90
18948;DHT22;9607;51.600;7.558;2024-03-08T08:35:08;3.90;99.90
18948;DHT22;9607;51.600;7.558;2024-03-08T08:37:40;4.00;99.90
18948;DHT22;9607;51.600;7.558;2024-03-08T08:40:07;4.10;99.90
18948;DHT22;9607;51.600;7.558;2024-03-08T08:42:36;4.20;99.90
18948;DHT22;9607;51.600;7.558;2024-03-08T08:45:03;4.20;99.90
18948;DHT22;9607;51.600;7.558;2024-03-08T08:47:34;4.30;99.90
18948;DHT22;9607;51.600;7.558;2024-03-08T08:50:01;4.40;99.90
18948;DHT22;9607;51.600;7.558;2024-03-08T08:52:28;4.50;99.90
18948;DHT22;9607;51.600;7.558;2024-03-08T08:54:57;4.50;99.90
18948;DHT22;9607;51.600;7.558;2024-03-08T08:57:24;4.60;99.90
18948;DHT22;9607;51.600;7.558;2024-03-08T08:59:51;4.70;99.90
18948;DHT22;9607;51.600;7.558;2024-03-08T09:02:17;4.70;99.90
18948;DHT22;9607;51.600;7.558;2024-03-08T09:04:46;4.90;99.90
18948;DHT22;9607;51.600;7.558;2024-03-08T09:07:14;4.90;99.90
18948;DHT22;9607;51.600;7.558;2024-03-08T09:09:42;5.00;99.90
18948;DHT22;9607;51.600;7.558;2024-03-08T09:12:10;5.10;99.90
18948;DHT22;9607;51.600;7.558;2024-03-08T09:14:38;5.10;99.90
18948;DHT22;9607;51.600;7.558;2024-03-08T09:17:05;5.20;99.90
18948;DHT22;9607;51.600;7.558;2024-03-08T09:19:34;5.30;99.90
18948;DHT22;9607;51.600;7.558;2024-03-08T09:22:00;5.40;99.90
18948;DHT22;9607;51.600;7.558;2024-03-08T09:24:29;5.50;99.90
18948;DHT22;9607;51.600;7.558;2024-03-08T09:26:56;5.70;99.90
18948;DHT22;9607;51.600;7.558;2024-03-08T09:29:25;5.80;99.90
18948;DHT22;9607;51.600;7.558;2024-03-08T09:31:52;6.00;99.90
18948;DHT22;9607;51.600;7.558;2024-03-08T09:34:19;6.40;99.90
18948;DHT22;9607;51.600;7.558;2024-03-08T09:36:46;6.60;99.90
18948;DHT22;9607;51.600;7.558;2024-03-08T09:39:13;6.70;99.90
18948;DHT22;9607;51.600;7.558;2024-03-08T09:41:42;6.90;99.90
18948;DHT22;9607;51.600;7.558;2024-03-08T09:44:10;6.90;99.90
18948;DHT22;9607;51.600;7.558;2024-03-08T09:46:39;7.00;99.90
18948;DHT22;9607;51.600;7.558;2024-03-08T09:49:07;7.10;99.90
18948;DHT22;9607;51.600;7.558;2024-03-08T09:51:34;7.20;99.90
18948;DHT22;9607;51.600;7.558;2024-03-08T09:54:01;7.30;99.90
18948;DHT22;9607;51.600;7.558;2024-03-08T09:56:32;7.40;99.90
18948;DHT22;9607;51.600;7.558;2024-03-08T09:58:59;7.70;99.90
18948;DHT22;9607;51.600;7.558;2024-03-08T10:02:12;7.90;99.90
18948;DHT22;9607;51.600;7.558;2024-03-08T10:04:41;8.10;99.90
18948;DHT22;9607;51.600;7.558;2024-03-08T10:07:08;8.30;99.90
18948;DHT22;9607;51.600;7.558;2024-03-08T10:09:35;8.40;99.90
18948;DHT22;9607;51.600;7.558;2024-03-08T10:12:02;8.40;99.90
18948;DHT22;9607;51.600;7.558;2024-03-08T10:14:31;8.50;99.90
18948;DHT22;9607;51.600;7.558;2024-03-08T10:16:57;8.60;99.90
18948;DHT22;9607;51.600;7.558;2024-03-08T10:19:27;8.60;99.90
18948;DHT22;9607;51.600;7.558;2024-03-08T10:21:55;8.60;99.90
18948;DHT22;9607;51.600;7.558;2024-03-08T10:24:24;8.60;99.90
18948;DHT22;9607;51.600;7.558;2024-03-08T10:26:52;8.90;99.90
18948;DHT22;9607;51.600;7.558;2024-03-08T10:29:20;9.00;99.90
18948;DHT22;9607;51.600;7.558;2024-03-08T10:31:47;9.00;99.90
18948;DHT22;9607;51.600;7.558;2024-03-08T10:34:16;9.00;99.90
18948;DHT22;9607;51.600;7.558;2024-03-08T10:36:44;9.00;99.90
18948;DHT22;9607;51.600;7.558;2024-03-08T10:39:17;9.10;99.90
18948;DHT22;9607;51.600;7.558;2024-03-08T10:41:52;9.20;99.90
18948;DHT22;9607;51.600;7.558;2024-03-08T10:44:32;9.30;99.90
18948;DHT22;9607;51.600;7.558;2024-03-08T10:47:06;9.50;99.90
18948;DHT22;9607;51.600;7.558;2024-03-08T10:49:38;9.50;99.90
18948;DHT22;9607;51.600;7.558;2024-03-08T10:52:06;9.50;99.90
18948;DHT22;9607;51.600;7.558;2024-03-08T10:54:36;9.50;99.90
18948;DHT22;9607;51.600;7.558;2024-03-08T10:57:06;9.50;99.90
18948;DHT22;9607;51.600;7.558;2024-03-08T10:59:34;9.60;99.90
18948;DHT22;9607;51.600;7.558;2024-03-08T11:02:01;9.70;99.90
18948;DHT22;9607;51.600;7.558;2024-03-08T11:04:31;9.90;99.90
18948;DHT22;9607;51.600;7.558;2024-03-08T11:07:01;10.00;99.90
18948;DHT22;9607;51.600;7.558;2024-03-08T11:09:35;10.00;99.90
18948;DHT22;9607;51.600;7.558;2024-03-08T11:12:25;10.10;99.90
18948;DHT22;9607;51.600;7.558;2024-03-08T11:14:55;10.30;99.90
18948;DHT22;9607;51.600;7.558;2024-03-08T11:17:40;10.30;99.90
18948;DHT22;9607;51.600;7.558;2024-03-08T11:20:10;10.40;99.90
18948;DHT22;9607;51.600;7.558;2024-03-08T11:22:41;10.50;99.90
18948;DHT22;9607;51.600;7.558;2024-03-08T11:25:31;10.60;99.90
18948;DHT22;9607;51.600;7.558;2024-03-08T11:28:23;10.70;99.90
18948;DHT22;9607;51.600;7.558;2024-03-08T11:33:50;10.90;99.90
18948;DHT22;9607;51.600;7.558;2024-03-08T11:36:20;11.00;99.90
18948;DHT22;9607;51.600;7.558;2024-03-08T11:38:48;11.00;99.90
18948;DHT22;9607;51.600;7.558;2024-03-08T11:41:17;11.10;99.90
18948;DHT22;9607;51.600;7.558;2024-03-08T11:43:45;11.30;99.90
18948;DHT22;9607;51.600;7.558;2024-03-08T11:46:13;11.40;99.90
18948;DHT22;9607;51.600;7.558;2024-03-08T11:48:40;11.50;99.90
18948;DHT22;9607;51.600;7.558;2024-03-08T11:51:07;11.60;99.90
18948;DHT22;9607;51.600;7.558;2024-03-08T11:53:35;11.70;99.90
18948;DHT22;9607;51.600;7.558;2024-03-08T11:56:07;11.80;99.90
18948;DHT22;9607;51.600;7.558;2024-03-08T11:58:35;11.90;99.90
18948;DHT22;9607;51.600;7.558;2024-03-08T12:01:04;12.00;99.90
18948;DHT22;9607;51.600;7.558;2024-03-08T12:03:31;12.10;99.90
18948;DHT22;9607;51.600;7.558;2024-03-08T12:05:59;12.10;99.90
18948;DHT22;9607;51.600;7.558;2024-03-08T12:08:27;12.30;99.90
18948;DHT22;9607;51.600;7.558;2024-03-08T12:10:55;12.40;99.90
18948;DHT22;9607;51.600;7.558;2024-03-08T12:13:25;12.50;99.90
18948;DHT22;9607;51.600;7.558;2024-03-08T12:15:56;12.70;99.90
18948;DHT22;9607;51.600;7.558;2024-03-08T12:18:24;12.80;99.90
18948;DHT22;9607;51.600;7.558;2024-03-08T12:20:52;12.90;99.90
18948;DHT22;9607;51.600;7.558;2024-03-08T12:23:19;13.00;99.90
18948;DHT22;9607;51.600;7.558;2024-03-08T12:25:45;13.20;99.90
18948;DHT22;9607;51.600;7.558;2024-03-08T12:28:13;13.60;99.90
18948;DHT22;9607;51.600;7.558;2024-03-08T12:30:46;14.40;99.90
18948;DHT22;9607;51.600;7.558;2024-03-08T12:33:15;15.40;97.50
18948;DHT22;9607;51.600;7.558;2024-03-08T12:35:50;16.60;93.20
18948;DHT22;9607;51.600;7.558;2024-03-08T12:38:20;17.60;83.90
18948;DHT22;9607;51.600;7.558;2024-03-08T12:40:50;18.60;76.50
18948;DHT22;9607;51.600;7.558;2024-03-08T12:43:22;19.40;68.60
18948;DHT22;9607;51.600;7.558;2024-03-08T12:45:49;20.10;65.60
18948;DHT22;9607;51.600;7.558;2024-03-08T12:48:17;20.70;61.20
18948;DHT22;9607;51.600;7.558;2024-03-08T12:50:46;20.90;57.60
18948;DHT22;9607;51.600;7.558;2024-03-08T12:53:13;21.00;54.80
18948;DHT22;9607;51.600;7.558;2024-03-08T12:55:40;21.00;54.30
18948;DHT22;9607;51.600;7.558;2024-03-08T12:58:07;20.90;53.50
18948;DHT22;9607;51.600;7.558;2024-03-08T13:00:34;20.80;53.10
18948;DHT22;9607;51.600;7.558;2024-03-08T13:03:01;20.70;53.70
18948;DHT22;9607;51.600;7.558;2024-03-08T13:05:30;20.30;53.10
18948;DHT22;9607;51.600;7.558;2024-03-08T13:07:57;19.80;54.00
18948;DHT22;9607;51.600;7.558;2024-03-08T13:10:24;19.50;54.80
18948;DHT22;9607;51.600;7.558;2024-03-08T13:12:51;19.50;55.70
18948;DHT22;9607;51.600;7.558;2024-03-08T13:15:18;19.20;56.20
18948;DHT22;9607;51.600;7.558;2024-03-08T13:17:46;19.10;57.10
18948;DHT22;9607;51.600;7.558;2024-03-08T13:20:14;19.20;57.10
18948;DHT22;9607;51.600;7.558;2024-03-08T13:22:45;19.10;56.30
18948;DHT22;9607;51.600;7.558;2024-03-08T13:25:12;18.80;56.10
18948;DHT22;9607;51.600;7.558;2024-03-08T13:27:40;18.60;57.00
18948;DHT22;9607;51.600;7.558;2024-03-08T13:30:08;18.20;57.60
18948;DHT22;9607;51.600;7.558;2024-03-08T13:32:39;17.80;58.30
18948;DHT22;9607;51.600;7.558;2024-03-08T13:35:06;17.50;59.40
18948;DHT22;9607;51.600;7.558;2024-03-08T13:37:38;17.30;61.40
18948;DHT22;9607;51.600;7.558;2024-03-08T13:40:08;17.30;61.80
18948;DHT22;9607;51.600;7.558;2024-03-08T13:42:39;17.20;61.10
18948;DHT22;9607;51.600;7.558;2024-03-08T13:45:07;17.10;61.80
18948;DHT22;9607;51.600;7.558;2024-03-08T13:47:36;17.20;63.00
18948;DHT22;9607;51.600;7.558;2024-03-08T13:50:03;17.10;63.00
18948;DHT22;9607;51.600;7.558;2024-03-08T13:52:32;16.90;63.60
18948;DHT22;9607;51.600;7.558;2024-03-08T13:54:59;16.90;66.40
18948;DHT22;9607;51.600;7.558;2024-03-08T13:57:28;17.40;66.30
18948;DHT22;9607;51.600;7.558;2024-03-08T13:59:54;18.10;64.30
18948;DHT22;9607;51.600;7.558;2024-03-08T14:02:21;18.70;60.20
18948;DHT22;9607;51.600;7.558;2024-03-08T14:04:50;19.10;59.40
18948;DHT22;9607;51.600;7.558;2024-03-08T14:07:17;19.10;59.00
18948;DHT22;9607;51.600;7.558;2024-03-08T14:09:43;18.90;58.80
18948;DHT22;9607;51.600;7.558;2024-03-08T14:12:10;18.80;58.60
18948;DHT22;9607;51.600;7.558;2024-03-08T14:14:38;18.90;58.90
18948;DHT22;9607;51.600;7.558;2024-03-08T14:17:06;18.80;58.30
18948;DHT22;9607;51.600;7.558;2024-03-08T14:19:32;18.80;58.30
18948;DHT22;9607;51.600;7.558;2024-03-08T14:22:00;18.60;59.10
18948;DHT22;9607;51.600;7.558;2024-03-08T14:24:29;18.30;60.00
18948;DHT22;9607;51.600;7.558;2024-03-08T14:26:56;18.20;59.40
18948;DHT22;9607;51.600;7.558;2024-03-08T14:29:24;18.20;61.00
18948;DHT22;9607;51.600;7.558;2024-03-08T14:31:55;18.20;60.00
18948;DHT22;9607;51.600;7.558;2024-03-08T14:34:24;17.90;60.40
18948;DHT22;9607;51.600;7.558;2024-03-08T14:36:52;17.50;61.40
18948;DHT22;9607;51.600;7.558;2024-03-08T14:39:20;17.30;62.20
18948;DHT22;9607;51.600;7.558;2024-03-08T14:41:47;17.00;62.90
18948;DHT22;9607;51.600;7.558;2024-03-08T14:44:14;16.90;63.90
18948;DHT22;9607;51.600;7.558;2024-03-08T14:46:42;16.80;64.60
18948;DHT22;9607;51.600;7.558;2024-03-08T14:49:10;16.80;65.20
18948;DHT22;9607;51.600;7.558;2024-03-08T14:51:37;16.70;65.30
18948;DHT22;9607;51.600;7.558;2024-03-08T14:54:03;16.80;67.50
18948;DHT22;9607;51.600;7.558;2024-03-08T14:56:32;17.10;66.50
18948;DHT22;9607;51.600;7.558;2024-03-08T14:58:58;17.20;63.20
18948;DHT22;9607;51.600;7.558;2024-03-08T15:01:26;17.20;63.20
18948;DHT22;9607;51.600;7.558;2024-03-08T15:03:55;17.00;64.10
18948;DHT22;9607;51.600;7.558;2024-03-08T15:06:28;17.00;64.60
18948;DHT22;9607;51.600;7.558;2024-03-08T15:08:57;17.40;65.70
18948;DHT22;9607;51.600;7.558;2024-03-08T15:11:24;17.80;64.10
18948;DHT22;9607;51.600;7.558;2024-03-08T15:13:51;18.40;63.20
18948;DHT22;9607;51.600;7.558;2024-03-08T15:16:19;18.60;60.90
18948;DHT22;9607;51.600;7.558;2024-03-08T15:18:49;18.60;60.80
18948;DHT22;9607;51.600;7.558;2024-03-08T15:21:17;18.50;60.00
18948;DHT22;9607;51.600;7.558;2024-03-08T15:23:46;18.50;60.70
18948;DHT22;9607;51.600;7.558;2024-03-08T15:26:15;18.60;59.90
18948;DHT22;9607;51.600;7.558;2024-03-08T15:28:43;18.60;59.80
18948;DHT22;9607;51.600;7.558;2024-03-08T15:31:11;18.70;59.00
18948;DHT22;9607;51.600;7.558;2024-03-08T15:33:39;18.90;60.00
18948;DHT22;9607;51.600;7.558;2024-03-08T15:36:09;19.00;59.50
18948;DHT22;9607;51.600;7.558;2024-03-08T15:38:37;19.20;58.90
18948;DHT22;9607;51.600;7.558;2024-03-08T15:41:05;19.20;58.50
18948;DHT22;9607;51.600;7.558;2024-03-08T15:43:35;19.30;58.70
18948;DHT22;9607;51.600;7.558;2024-03-08T15:46:02;19.50;58.00
18948;DHT22;9607;51.600;7.558;2024-03-08T15:48:30;19.60;57.70
18948;DHT22;9607;51.600;7.558;2024-03-08T15:50:58;19.70;57.10
18948;DHT22;9607;51.600;7.558;2024-03-08T15:53:27;19.90;57.60
18948;DHT22;9607;51.600;7.558;2024-03-08T15:55:55;20.10;56.60
18948;DHT22;9607;51.600;7.558;2024-03-08T15:58:24;20.20;56.50
18948;DHT22;9607;51.600;7.558;2024-03-08T16:00:51;20.30;55.50
18948;DHT22;9607;51.600;7.558;2024-03-08T16:03:18;20.30;55.50
18948;DHT22;9607;51.600;7.558;2024-03-08T16:05:46;20.20;55.40